Time;durP1;ratioP1;P1;durP2;ratioP2;P2;SDS_P1;SDS_P2;PMS_P1;PMS_P2;Temp;Humidity;BMP_temperature;BMP_pressure;BME280_temperature;BME280_humidity;BME280_pressure;Samples;Min_cycle;Max_cycle;Signal;HPM_P1;HPM_P2
2021/05/08 00:01:16;;;;;;;2.60;0.65;;;;;;;8.19;64.90;100165.28;4930665;29;20027;-67
2021/05/08 00:03:43;;;;;;;1.80;0.52;;;;;;;8.17;65.52;100148.03;4956750;28;20031;-69
2021/05/08 00:06:10;;;;;;;1.77;0.43;;;;;;;8.15;65.85;100144.56;4943234;28;20942;-70
2021/05/08 00:08:37;;;;;;;1.70;0.60;;;;;;;8.12;67.30;100121.25;4956899;28;20027;-69
2021/05/08 00:11:04;;;;;;;0.70;0.50;;;;;;;8.02;67.02;100125.81;4939813;28;20491;-69
2021/05/08 00:13:29;;;;;;;1.92;0.50;;;;;;;8.02;68.89;100116.25;4943455;28;20048;-69
2021/05/08 00:15:55;;;;;;;1.77;0.50;;;;;;;8.02;70.40;100123.19;4944910;28;20035;-70
2021/05/08 00:18:21;;;;;;;1.30;0.50;;;;;;;8.04;67.43;100106.66;4941869;28;20053;-70
2021/05/08 00:20:46;;;;;;;1.42;0.70;;;;;;;8.06;68.72;100089.31;4937316;28;20039;-70
2021/05/08 00:23:12;;;;;;;2.20;0.77;;;;;;;7.97;68.88;100099.91;4956064;28;20035;-69
2021/05/08 00:25:38;;;;;;;2.22;0.50;;;;;;;8.02;68.67;100087.66;4949005;28;20019;-69
2021/05/08 00:28:03;;;;;;;2.58;0.60;;;;;;;8.04;69.92;100087.59;4942931;28;20037;-70
2021/05/08 00:30:32;;;;;;;0.93;0.40;;;;;;;8.01;67.45;100082.50;4942358;28;20031;-70
2021/05/08 00:32:57;;;;;;;1.35;0.57;;;;;;;7.97;66.70;100068.69;4929470;28;20055;-70
2021/05/08 00:35:23;;;;;;;0.95;0.40;;;;;;;7.91;64.78;100068.00;4930366;28;20051;-71
2021/05/08 00:37:48;;;;;;;1.83;0.30;;;;;;;7.84;66.42;100048.19;4933415;28;20031;-69
2021/05/08 00:40:14;;;;;;;1.83;0.40;;;;;;;7.79;67.39;100054.34;4929867;29;20035;-69
2021/05/08 00:42:40;;;;;;;1.52;0.70;;;;;;;7.74;68.63;100043.19;4962531;28;20038;-69
2021/05/08 00:45:09;;;;;;;1.35;0.60;;;;;;;7.78;69.47;100038.78;4964121;28;20075;-70
2021/05/08 00:47:40;;;;;;;2.75;0.63;;;;;;;7.80;70.49;100029.19;4941744;28;20069;-69
2021/05/08 00:50:08;;;;;;;2.08;0.70;;;;;;;7.70;70.86;100027.69;4936414;28;20131;-70
2021/05/08 00:52:34;;;;;;;3.25;1.10;;;;;;;7.51;74.00;100002.13;4948364;28;20085;-70
2021/05/08 00:54:59;;;;;;;1.25;0.40;;;;;;;7.45;70.59;100010.06;4930632;28;20027;-70
2021/05/08 00:57:25;;;;;;;1.23;0.50;;;;;;;7.21;70.89;100005.38;4952892;28;20391;-69
2021/05/08 00:59:50;;;;;;;1.52;0.55;;;;;;;7.01;73.47;99978.03;4947334;28;20142;-69
2021/05/08 01:02:16;;;;;;;0.73;0.40;;;;;;;6.85;72.06;99979.25;4938836;28;20026;-69
2021/05/08 01:04:42;;;;;;;1.55;0.63;;;;;;;6.69;73.71;99964.81;4948974;28;20027;-69
2021/05/08 01:07:08;;;;;;;0.95;0.50;;;;;;;6.63;76.22;99983.09;4945902;28;20049;-72
2021/05/08 01:09:33;;;;;;;3.65;0.52;;;;;;;6.46;75.83;99958.31;4948197;28;20503;-70
2021/05/08 01:11:59;;;;;;;1.80;0.75;;;;;;;6.32;78.33;99949.06;4946496;28;20023;-70
2021/05/08 01:14:25;;;;;;;1.27;0.40;;;;;;;6.31;77.70;99940.44;4943871;28;20111;-70
2021/05/08 01:16:50;;;;;;;1.45;0.40;;;;;;;6.35;77.67;99951.63;4962527;28;20802;-69
2021/05/08 01:19:18;;;;;;;1.40;0.80;;;;;;;6.23;80.93;99924.16;4945195;28;20031;-70
2021/05/08 01:21:44;;;;;;;0.97;0.50;;;;;;;6.22;76.72;99940.59;4927296;29;20071;-70
2021/05/08 01:24:10;;;;;;;1.00;0.60;;;;;;;6.19;80.06;99915.59;4923164;28;20039;-69
2021/05/08 01:26:35;;;;;;;0.40;0.40;;;;;;;6.21;78.08;99903.44;4940356;28;20027;-70
2021/05/08 01:29:02;;;;;;;2.10;0.50;;;;;;;6.18;80.38;99902.63;4959025;28;20023;-70
2021/05/08 01:31:27;;;;;;;0.70;0.45;;;;;;;6.17;78.24;99906.97;4949450;28;20464;-69
2021/05/08 01:33:54;;;;;;;0.55;0.47;;;;;;;6.21;81.07;99897.41;4942408;28;20042;-70
2021/05/08 01:36:20;;;;;;;1.00;0.50;;;;;;;6.18;81.52;99892.28;4932869;28;20491;-69
2021/05/08 01:38:45;;;;;;;0.82;0.60;;;;;;;6.20;81.99;99882.75;4957927;28;20018;-70
2021/05/08 01:41:11;;;;;;;1.30;0.77;;;;;;;6.15;84.04;99869.00;4936968;29;20906;-69
2021/05/08 01:43:37;;;;;;;1.25;0.60;;;;;;;6.15;82.32;99845.69;4948450;28;20043;-70
2021/05/08 01:46:03;;;;;;;1.85;0.90;;;;;;;6.13;82.20;99852.63;4948532;28;20035;-70
2021/05/08 01:48:29;;;;;;;2.10;0.75;;;;;;;6.19;85.25;99842.16;4950311;28;20027;-69
2021/05/08 01:50:55;;;;;;;2.88;0.80;;;;;;;6.19;83.06;99832.63;4953164;28;20034;-70
2021/05/08 01:53:21;;;;;;;1.42;0.70;;;;;;;6.19;83.31;99829.19;4951683;28;20043;-70
2021/05/08 01:55:47;;;;;;;1.10;0.70;;;;;;;6.16;83.41;99814.53;4959432;28;20143;-71
2021/05/08 01:58:13;;;;;;;1.42;0.93;;;;;;;6.19;84.53;99808.47;4954616;28;20028;-71
2021/05/08 02:00:41;;;;;;;2.53;0.98;;;;;;;6.08;85.08;99780.13;4945193;28;20030;-71
2021/05/08 02:03:08;;;;;;;2.03;0.90;;;;;;;6.25;82.41;99790.19;4939908;28;20553;-70
2021/05/08 02:05:35;;;;;;;1.77;1.00;;;;;;;6.20;85.03;99772.13;4952469;28;20029;-70
2021/05/08 02:08:03;;;;;;;2.83;0.90;;;;;;;6.20;86.45;99760.91;4943719;28;20054;-70
2021/05/08 02:10:33;;;;;;;2.97;0.85;;;;;;;6.26;85.94;99754.75;4954361;28;20423;-71
2021/05/08 02:13:03;;;;;;;2.72;1.15;;;;;;;6.18;86.79;99741.91;4944846;28;20054;-70
2021/05/08 02:15:28;;;;;;;0.82;0.52;;;;;;;6.22;86.33;99743.56;4945572;28;20023;-70
2021/05/08 02:17:54;;;;;;;3.85;1.20;;;;;;;6.26;86.74;99729.66;4935821;28;20699;-70
2021/05/08 02:20:25;;;;;;;2.20;1.05;;;;;;;6.29;86.50;99729.63;4943943;28;20574;-69
2021/05/08 02:22:51;;;;;;;1.67;0.90;;;;;;;6.27;84.46;99723.59;4944481;28;20027;-69
2021/05/08 02:25:16;;;;;;;2.50;1.20;;;;;;;6.20;86.15;99709.06;4949174;28;20031;-70
2021/05/08 02:27:42;;;;;;;4.45;1.58;;;;;;;6.16;86.57;99703.06;4952704;28;20027;-70
2021/05/08 02:30:10;;;;;;;4.65;1.15;;;;;;;6.29;86.01;99706.28;4959125;28;20125;-70
2021/05/08 02:32:36;;;;;;;3.47;1.35;;;;;;;6.19;86.38;99686.63;4938179;28;20047;-70
2021/05/08 02:35:03;;;;;;;1.85;0.90;;;;;;;6.18;86.87;99690.06;4936533;28;20051;-70
2021/05/08 02:37:28;;;;;;;3.38;1.00;;;;;;;6.22;87.25;99678.75;4949347;28;20031;-70
2021/05/08 02:39:54;;;;;;;2.53;1.02;;;;;;;6.20;88.62;99667.59;4949427;28;20061;-70
2021/05/08 02:42:19;;;;;;;2.30;1.20;;;;;;;6.18;88.08;99658.97;4955565;28;20054;-70
2021/05/08 02:44:45;;;;;;;2.65;1.13;;;;;;;6.17;89.04;99652.09;4942000;28;20127;-70
2021/05/08 02:47:19;;;;;;;4.63;1.50;;;;;;;6.24;88.82;99653.69;4928877;28;20027;-70
2021/05/08 02:49:46;;;;;;;2.92;1.00;;;;;;;6.32;88.44;99636.19;4943240;28;20402;-70
2021/05/08 02:52:12;;;;;;;4.45;1.52;;;;;;;6.39;89.61;99636.94;4941497;28;20400;-71
2021/05/08 02:54:38;;;;;;;5.20;1.05;;;;;;;6.39;89.14;99627.41;4955126;28;20076;-70
2021/05/08 02:57:04;;;;;;;4.03;1.35;;;;;;;6.38;89.63;99615.31;4940534;28;20078;-71
2021/05/08 02:59:29;;;;;;;3.08;0.93;;;;;;;6.40;89.68;99603.19;4943149;28;20505;-69
2021/05/08 03:01:54;;;;;;;3.50;1.30;;;;;;;6.35;89.68;99586.88;4953043;28;20019;-70
2021/05/08 03:04:20;;;;;;;2.30;1.10;;;;;;;6.36;89.74;99570.41;4934410;28;20153;-70
2021/05/08 03:06:46;;;;;;;3.80;1.40;;;;;;;6.32;90.13;99553.22;4935770;28;20128;-70
2021/05/08 03:09:11;;;;;;;4.18;1.30;;;;;;;6.33;89.96;99559.25;4937597;28;20027;-70
2021/05/08 03:11:37;;;;;;;4.45;1.67;;;;;;;6.33;90.22;99538.53;4938870;28;20517;-70
2021/05/08 03:14:02;;;;;;;6.10;1.45;;;;;;;6.33;90.36;99523.81;4950765;28;20050;-70
2021/05/08 03:16:29;;;;;;;2.33;0.88;;;;;;;6.32;89.83;99516.94;4941448;28;20051;-70
2021/05/08 03:18:55;;;;;;;4.05;1.20;;;;;;;6.31;89.93;99507.47;4936924;28;20655;-71
2021/05/08 03:21:21;;;;;;;3.50;1.15;;;;;;;6.32;89.59;99506.56;4941935;28;20031;-71
2021/05/08 03:23:47;;;;;;;2.42;0.93;;;;;;;6.27;89.72;99492.84;4939450;28;20050;-70
2021/05/08 03:26:12;;;;;;;5.03;1.20;;;;;;;6.21;90.15;99495.59;4941555;28;20023;-70
2021/05/08 03:28:38;;;;;;;4.88;1.00;;;;;;;6.11;89.96;99465.63;4954368;28;20031;-70
2021/05/08 03:31:03;;;;;;;2.75;0.90;;;;;;;6.12;89.28;99469.91;4938698;28;20023;-70
2021/05/08 03:33:29;;;;;;;3.40;1.00;;;;;;;6.06;89.63;99464.88;4936720;28;20036;-70
2021/05/08 03:35:54;;;;;;;3.03;1.10;;;;;;;6.02;90.30;99455.47;4936387;28;20482;-70
2021/05/08 03:38:20;;;;;;;3.33;1.20;;;;;;;6.07;90.10;99451.03;4952136;28;20058;-70
2021/05/08 03:40:45;;;;;;;2.92;1.17;;;;;;;6.04;90.26;99438.16;4927506;29;20078;-70
2021/05/08 03:43:11;;;;;;;5.07;1.50;;;;;;;5.98;89.80;99408.03;4937319;28;20046;-72
2021/05/08 03:45:36;;;;;;;4.38;1.35;;;;;;;6.01;89.92;99427.84;4943714;28;20030;-70
2021/05/08 03:48:02;;;;;;;3.65;1.50;;;;;;;6.01;90.89;99418.34;4941057;28;20035;-70
2021/05/08 03:50:27;;;;;;;6.45;1.40;;;;;;;5.98;91.08;99419.28;4946152;28;20030;-71
2021/05/08 03:52:53;;;;;;;6.25;1.55;;;;;;;6.03;91.11;99389.78;4956406;28;20035;-70
2021/05/08 03:55:18;;;;;;;7.53;1.73;;;;;;;6.00;91.90;99385.56;4912379;29;20479;-71
2021/05/08 03:57:44;;;;;;;6.15;1.48;;;;;;;5.94;91.77;99355.47;4910574;28;20083;-70
2021/05/08 04:00:10;;;;;;;3.72;1.10;;;;;;;6.03;91.04;99372.50;4931176;28;20472;-71
2021/05/08 04:02:36;;;;;;;3.88;1.08;;;;;;;5.98;91.19;99341.53;4933966;28;20037;-70
2021/05/08 04:05:01;;;;;;;3.50;1.15;;;;;;;5.94;90.95;99344.25;4938540;28;20023;-71
2021/05/08 04:07:27;;;;;;;2.10;0.95;;;;;;;5.91;91.15;99327.03;4933311;28;20031;-70
2021/05/08 04:09:52;;;;;;;3.53;1.10;;;;;;;5.92;91.29;99331.31;4941713;28;20023;-70
2021/05/08 04:12:18;;;;;;;6.22;1.80;;;;;;;5.84;91.31;99312.50;4931932;28;20123;-71
2021/05/08 04:14:43;;;;;;;3.90;1.13;;;;;;;5.88;91.60;99303.78;4935119;28;20071;-69
2021/05/08 04:17:10;;;;;;;8.85;1.40;;;;;;;5.84;92.04;99296.13;4941514;28;20038;-71
2021/05/08 04:19:53;;;;;;;1.10;0.58;;;;;;;5.89;91.97;99289.94;1891027;28;10022884;-70
2021/05/08 04:22:19;;;;;;;6.10;1.25;;;;;;;5.87;91.95;99281.31;3910611;28;10001123;-70
2021/05/08 04:24:44;;;;;;;1.83;0.98;;;;;;;5.92;91.50;99269.13;4939149;28;20034;-71
2021/05/08 04:27:10;;;;;;;3.88;1.38;;;;;;;5.83;91.67;99273.66;4941736;28;20034;-70
2021/05/08 04:29:35;;;;;;;8.40;1.73;;;;;;;5.93;92.04;99268.28;4947146;28;20019;-71
2021/05/08 04:32:01;;;;;;;5.18;1.70;;;;;;;5.94;92.44;99251.81;4939749;28;20026;-70
2021/05/08 04:34:26;;;;;;;8.80;2.05;;;;;;;5.89;91.61;99247.63;4935865;28;20027;-70
2021/05/08 04:36:52;;;;;;;4.63;1.25;;;;;;;5.90;91.74;99245.00;4937580;28;20031;-70
2021/05/08 04:39:18;;;;;;;5.85;1.23;;;;;;;5.92;91.88;99235.44;4955752;28;20034;-70
2021/05/08 04:41:44;;;;;;;6.97;1.67;;;;;;;5.95;92.42;99232.78;4942207;28;20031;-70
2021/05/08 04:44:09;;;;;;;7.25;1.80;;;;;;;5.88;92.78;99226.06;4946511;28;20024;-70
2021/05/08 04:46:35;;;;;;;7.63;1.92;;;;;;;5.95;93.13;99211.22;4952946;28;20029;-70
2021/05/08 04:49:00;;;;;;;7.00;1.15;;;;;;;5.97;92.41;99202.50;4937544;28;20023;-70
2021/05/08 04:51:26;;;;;;;5.07;1.98;;;;;;;5.95;92.64;99204.28;4942587;28;20034;-69
2021/05/08 04:53:52;;;;;;;8.23;1.67;;;;;;;6.00;92.98;99203.31;4941135;28;20394;-70
2021/05/08 04:56:18;;;;;;;6.97;1.45;;;;;;;6.08;93.22;99193.56;4924691;29;20491;-70
2021/05/08 04:58:44;;;;;;;4.25;1.50;;;;;;;6.13;93.47;99181.31;4924395;29;20027;-70
2021/05/08 05:01:10;;;;;;;7.47;2.60;;;;;;;6.12;93.49;99174.44;4940934;28;20043;-70
2021/05/08 05:03:36;;;;;;;7.32;2.22;;;;;;;6.05;93.07;99170.34;4917246;29;20070;-69
2021/05/08 05:06:03;;;;;;;4.50;1.90;;;;;;;5.98;93.42;99156.69;4941810;28;20054;-70
2021/05/08 05:08:29;;;;;;;10.02;1.90;;;;;;;6.06;93.53;99159.09;4941651;28;20462;-70
2021/05/08 05:10:55;;;;;;;5.72;2.03;;;;;;;6.07;93.60;99151.25;4928960;28;20591;-71
2021/05/08 05:13:22;;;;;;;4.47;1.38;;;;;;;6.07;93.36;99143.47;4930156;28;20051;-69
2021/05/08 05:15:47;;;;;;;6.03;1.60;;;;;;;6.10;93.36;99122.69;4941628;28;20031;-71
2021/05/08 05:18:13;;;;;;;5.72;2.05;;;;;;;6.04;93.17;99106.47;4940520;28;20062;-70
2021/05/08 05:20:40;;;;;;;6.70;2.13;;;;;;;6.14;93.52;99085.41;4935873;28;20098;-70
2021/05/08 05:23:06;;;;;;;4.22;1.50;;;;;;;6.18;93.24;99083.56;4931983;28;20114;-70
2021/05/08 05:25:31;;;;;;;7.03;1.52;;;;;;;6.11;93.27;99069.94;4945814;28;20110;-70
2021/05/08 05:27:57;;;;;;;5.65;1.70;;;;;;;6.16;93.46;99064.63;4926361;29;20104;-71
2021/05/08 05:30:22;;;;;;;5.78;1.48;;;;;;;6.23;93.48;99066.13;4945923;28;20113;-70
2021/05/08 05:32:48;;;;;;;5.95;1.60;;;;;;;6.35;93.87;99057.97;4925481;29;20094;-70
2021/05/08 05:35:14;;;;;;;6.13;1.73;;;;;;;6.26;93.19;99029.75;4940693;28;20036;-70
2021/05/08 05:37:40;;;;;;;4.55;1.48;;;;;;;6.33;93.60;99020.84;4944211;28;20481;-70
2021/05/08 05:40:06;;;;;;;1.98;0.80;;;;;;;6.37;93.42;99012.09;4938818;28;20081;-70
2021/05/08 05:42:32;;;;;;;6.03;1.63;;;;;;;6.42;93.57;99030.09;4942620;28;20023;-71
2021/05/08 05:44:57;;;;;;;5.43;1.60;;;;;;;6.42;93.54;99028.34;4942191;28;20450;-70
2021/05/08 05:47:23;;;;;;;5.05;1.40;;;;;;;6.44;93.42;99023.97;4940625;28;20038;-70
2021/05/08 05:49:52;;;;;;;4.72;0.88;;;;;;;6.48;92.98;99024.69;4949135;28;20113;-71
2021/05/08 05:52:21;;;;;;;4.68;1.20;;;;;;;6.52;93.01;99020.28;4934403;28;20122;-70
2021/05/08 05:54:48;;;;;;;9.25;1.90;;;;;;;6.46;93.40;99009.22;4923903;28;20051;-70
2021/05/08 05:57:14;;;;;;;10.07;1.45;;;;;;;6.48;93.55;99020.34;4961183;28;20042;-70
2021/05/08 05:59:40;;;;;;;4.20;1.60;;;;;;;6.47;93.52;99013.50;4949863;28;20043;-70
2021/05/08 06:02:06;;;;;;;5.50;1.67;;;;;;;6.52;93.68;99008.16;4924280;29;20027;-70
2021/05/08 06:04:32;;;;;;;7.45;1.70;;;;;;;6.60;93.95;99002.72;4952168;28;20057;-70
2021/05/08 06:06:58;;;;;;;7.57;1.65;;;;;;;6.53;93.71;98985.66;4941606;28;20482;-70
2021/05/08 06:09:27;;;;;;;7.85;1.70;;;;;;;6.56;93.87;98986.41;4926645;28;20114;-70
2021/05/08 06:11:54;;;;;;;6.43;1.50;;;;;;;6.58;93.69;98978.56;4944963;28;20019;-70
2021/05/08 06:14:19;;;;;;;3.25;0.80;;;;;;;6.75;93.95;98976.25;4931461;28;20047;-70
2021/05/08 06:16:45;;;;;;;2.92;0.73;;;;;;;6.72;93.37;98958.19;4954709;28;20433;-71
2021/05/08 06:19:11;;;;;;;5.90;1.10;;;;;;;6.79;93.51;98938.06;4941738;28;20090;-71
2021/05/08 06:21:38;;;;;;;7.07;1.80;;;;;;;6.81;93.54;98934.53;4945402;28;20550;-71
2021/05/08 06:24:05;;;;;;;3.30;1.17;;;;;;;6.86;93.67;98926.59;4958085;28;20174;-70
2021/05/08 06:26:30;;;;;;;4.82;1.52;;;;;;;6.86;93.78;98916.22;4936478;28;20054;-70
2021/05/08 06:28:56;;;;;;;7.57;1.70;;;;;;;6.86;93.58;98911.03;4940726;28;20062;-71
2021/05/08 06:31:22;;;;;;;5.57;1.40;;;;;;;6.91;93.66;98909.94;4937587;28;20027;-70
2021/05/08 06:33:47;;;;;;;3.70;1.02;;;;;;;6.96;93.55;98892.47;4945617;28;20062;-70
2021/05/08 06:36:13;;;;;;;5.20;1.42;;;;;;;6.98;93.73;98898.44;4949470;28;20066;-70
2021/05/08 06:38:38;;;;;;;3.55;1.50;;;;;;;7.00;93.53;98894.03;4943063;28;20116;-70
2021/05/08 06:41:04;;;;;;;3.00;1.10;;;;;;;7.06;93.26;98886.94;4939772;28;20031;-70
2021/05/08 06:43:29;;;;;;;2.95;0.90;;;;;;;7.03;93.29;98883.53;4945626;28;20038;-71
2021/05/08 06:45:55;;;;;;;5.30;1.20;;;;;;;7.05;93.57;98874.88;4929971;28;20031;-70
2021/05/08 06:48:20;;;;;;;2.65;0.80;;;;;;;7.10;93.23;98875.53;4939914;28;20027;-70
2021/05/08 06:50:46;;;;;;;1.65;0.70;;;;;;;7.12;93.14;98866.78;4927951;28;20023;-70
2021/05/08 06:53:12;;;;;;;4.25;1.38;;;;;;;7.14;93.21;98870.16;4936631;28;20023;-71
2021/05/08 06:55:38;;;;;;;4.60;1.10;;;;;;;7.17;93.57;98859.66;4933747;28;20394;-70
2021/05/08 06:58:03;;;;;;;3.25;0.85;;;;;;;7.24;93.23;98839.50;4943258;28;20556;-71
2021/05/08 07:00:29;;;;;;;2.78;0.80;;;;;;;7.35;93.19;98832.16;4940989;28;20444;-71
2021/05/08 07:02:54;;;;;;;3.47;0.70;;;;;;;7.45;92.73;98828.28;4925006;29;20477;-70
2021/05/08 07:05:20;;;;;;;3.28;0.70;;;;;;;7.39;93.05;98823.31;4941996;28;20051;-70
2021/05/08 07:07:45;;;;;;;3.20;0.80;;;;;;;7.43;93.31;98808.47;4941768;28;20130;-71
2021/05/08 07:10:11;;;;;;;3.10;0.95;;;;;;;7.42;93.30;98802.44;4931049;29;20034;-70
2021/05/08 07:12:36;;;;;;;2.28;0.70;;;;;;;7.49;93.42;98793.47;4931272;28;20543;-71
2021/05/08 07:15:02;;;;;;;1.50;0.77;;;;;;;7.55;93.18;98787.16;4933753;28;20027;-70
2021/05/08 07:17:28;;;;;;;2.67;0.82;;;;;;;7.67;92.99;98775.44;4940653;28;20047;-71
2021/05/08 07:19:53;;;;;;;3.72;1.00;;;;;;;7.60;93.33;98768.81;4937195;28;20039;-70
2021/05/08 07:22:19;;;;;;;5.93;1.27;;;;;;;7.73;93.26;98780.38;4930992;28;20100;-70
2021/05/08 07:24:44;;;;;;;3.15;0.88;;;;;;;7.79;92.76;98780.97;4932800;28;20039;-71
2021/05/08 07:27:10;;;;;;;3.63;0.88;;;;;;;7.84;92.57;98778.19;4950608;28;20038;-70
2021/05/08 07:29:35;;;;;;;1.30;0.60;;;;;;;7.87;92.47;98772.88;4931501;28;20035;-71
2021/05/08 07:32:01;;;;;;;2.63;0.98;;;;;;;7.86;92.70;98773.78;4936276;28;20027;-70
2021/05/08 07:34:26;;;;;;;2.65;1.00;;;;;;;7.92;92.44;98751.88;4934777;28;20089;-70
2021/05/08 07:36:52;;;;;;;4.38;0.82;;;;;;;8.01;92.65;98752.31;4920837;28;20075;-70
2021/05/08 07:39:17;;;;;;;3.25;1.00;;;;;;;7.95;92.98;98762.13;4931673;28;20509;-70
2021/05/08 07:41:43;;;;;;;3.50;1.02;;;;;;;8.01;93.04;98743.69;4941716;28;20127;-71
2021/05/08 07:44:10;;;;;;;2.75;1.20;;;;;;;8.07;92.76;98715.66;4916113;29;20031;-71
2021/05/08 07:46:35;;;;;;;2.83;0.80;;;;;;;8.19;92.95;98723.81;4926859;28;20028;-71
2021/05/08 07:49:01;;;;;;;2.33;0.65;;;;;;;8.27;92.27;98725.19;4922796;28;20566;-70
2021/05/08 07:51:26;;;;;;;3.30;1.00;;;;;;;8.29;92.67;98722.50;4928985;28;20031;-70
2021/05/08 07:53:52;;;;;;;6.57;1.10;;;;;;;8.31;93.00;98712.84;4934410;28;20031;-70
2021/05/08 07:56:18;;;;;;;6.00;1.08;;;;;;;8.37;93.03;98694.44;4937498;28;20090;-71
2021/05/08 07:58:44;;;;;;;4.20;1.10;;;;;;;8.32;92.95;98675.56;4930745;28;20038;-70
2021/05/08 08:01:09;;;;;;;6.20;1.30;;;;;;;8.51;92.58;98689.41;4934686;28;20035;-68
2021/05/08 08:03:35;;;;;;;5.47;1.30;;;;;;;8.64;92.58;98681.88;4933087;28;20114;-68
2021/05/08 08:06:00;;;;;;;4.10;0.90;;;;;;;8.76;92.53;98680.47;4927001;28;20038;-70
2021/05/08 08:08:28;;;;;;;6.28;1.15;;;;;;;8.80;92.38;98661.19;4933761;28;20086;-71
2021/05/08 08:10:54;;;;;;;6.45;1.15;;;;;;;8.88;92.40;98653.84;4929232;28;20074;-72
2021/05/08 08:13:20;;;;;;;8.73;1.40;;;;;;;8.93;92.19;98646.66;4918281;29;20039;-72
2021/05/08 08:15:45;;;;;;;9.18;1.70;;;;;;;9.05;92.23;98660.84;4944716;28;20031;-68
2021/05/08 08:18:11;;;;;;;5.53;1.30;;;;;;;9.23;91.40;98665.16;4946941;28;20027;-71
2021/05/08 08:20:37;;;;;;;5.45;1.30;;;;;;;9.35;90.83;98663.69;4932584;28;20030;-72
2021/05/08 08:23:03;;;;;;;7.65;1.10;;;;;;;9.36;91.13;98661.00;4928641;28;20082;-70
2021/05/08 08:25:29;;;;;;;8.57;1.60;;;;;;;9.37;91.44;98654.00;4936407;28;20027;-70
2021/05/08 08:27:55;;;;;;;7.05;1.35;;;;;;;9.48;91.41;98646.53;4927671;28;20097;-68
2021/05/08 08:30:20;;;;;;;9.25;1.85;;;;;;;9.61;90.84;98650.16;4928332;28;20023;-69
2021/05/08 08:32:45;;;;;;;9.48;1.60;;;;;;;9.65;90.87;98650.03;4928627;28;20036;-68
2021/05/08 08:35:11;;;;;;;7.80;1.52;;;;;;;9.92;89.66;98627.72;4932816;28;20113;-68
2021/05/08 08:37:37;;;;;;;8.75;1.38;;;;;;;10.13;89.42;98620.50;4940482;28;20126;-68
2021/05/08 08:40:03;;;;;;;6.82;1.40;;;;;;;10.23;89.46;98611.25;4935089;28;20027;-68
2021/05/08 08:42:28;;;;;;;6.45;1.58;;;;;;;10.48;88.31;98623.81;4936294;28;20066;-68
2021/05/08 08:44:57;;;;;;;6.10;1.50;;;;;;;10.49;88.96;98628.13;4912774;28;20442;-68
2021/05/08 08:47:28;;;;;;;10.75;2.10;;;;;;;10.69;87.85;98618.31;4938599;28;20026;-69
2021/05/08 08:50:03;;;;;;;7.18;1.65;;;;;;;10.74;87.77;98627.56;4944428;28;20078;-68
2021/05/08 08:52:29;;;;;;;7.55;1.48;;;;;;;10.67;87.71;98626.25;4934129;28;20029;-68
2021/05/08 08:54:57;;;;;;;7.78;1.75;;;;;;;10.60;88.74;98614.47;4928186;28;20031;-68
2021/05/08 08:57:33;;;;;;;8.82;1.60;;;;;;;10.88;87.37;98622.41;4933831;28;20134;-68
2021/05/08 09:00:00;;;;;;;8.25;1.60;;;;;;;11.10;87.11;98610.72;4925581;28;20131;-68
2021/05/08 09:02:27;;;;;;;6.60;1.38;;;;;;;11.35;86.36;98623.19;4933693;28;20067;-68
2021/05/08 09:04:54;;;;;;;5.50;1.48;;;;;;;11.61;85.67;98617.28;4941286;28;20024;-68
2021/05/08 09:07:22;;;;;;;5.50;1.53;;;;;;;11.58;85.92;98614.84;4928815;28;20027;-68
2021/05/08 09:09:50;;;;;;;7.03;1.80;;;;;;;11.90;84.28;98617.28;4917950;28;20284;-68
2021/05/08 09:12:18;;;;;;;4.47;1.50;;;;;;;12.08;83.98;98624.03;4931412;28;20038;-68
2021/05/08 09:14:48;;;;;;;5.75;1.73;;;;;;;12.34;82.15;98616.31;4929298;28;20043;-70
2021/05/08 09:17:16;;;;;;;6.60;1.80;;;;;;;12.83;80.81;98616.63;4946529;28;20040;-70
2021/05/08 09:19:48;;;;;;;5.85;1.80;;;;;;;13.04;80.36;98614.38;4936034;28;20821;-68
2021/05/08 09:22:34;;;;;;;5.03;1.58;;;;;;;13.08;81.70;98615.88;4932289;28;20842;-68
2021/05/08 09:25:01;;;;;;;6.60;1.90;;;;;;;13.10;81.30;98619.22;4929644;28;20094;-68
2021/05/08 09:27:45;;;;;;;5.30;1.53;;;;;;;12.88;82.87;98622.41;4950928;28;20063;-68
2021/05/08 09:30:14;;;;;;;4.05;1.20;;;;;;;13.22;81.98;98623.66;4929926;28;20042;-69
2021/05/08 09:32:48;;;;;;;4.18;0.82;;;;;;;13.24;81.00;98621.78;4931588;28;20919;-69
2021/05/08 09:35:18;;;;;;;3.65;0.98;;;;;;;13.34;81.89;98619.41;4938472;28;20066;-68
2021/05/08 09:37:44;;;;;;;4.32;1.00;;;;;;;13.54;82.27;98627.69;4936415;28;20487;-68
2021/05/08 09:40:15;;;;;;;3.33;0.93;;;;;;;13.70;81.24;98629.16;4935902;28;20039;-68
2021/05/08 09:42:54;;;;;;;3.58;0.85;;;;;;;13.71;82.17;98630.84;4930644;28;20126;-68
2021/05/08 09:45:22;;;;;;;5.25;0.80;;;;;;;13.81;82.04;98625.78;4950084;28;20028;-69
2021/05/08 09:47:49;;;;;;;3.22;0.50;;;;;;;13.69;82.73;98622.25;4929383;28;20027;-69
2021/05/08 09:50:20;;;;;;;1.10;0.40;;;;;;;14.21;82.52;98623.84;4937482;28;20514;-68
2021/05/08 09:52:49;;;;;;;2.10;0.60;;;;;;;14.02;82.82;98634.78;4933199;28;20019;-68
2021/05/08 09:55:16;;;;;;;1.25;0.70;;;;;;;14.07;82.40;98626.59;4949639;28;20036;-68
2021/05/08 09:58:03;;;;;;;2.25;0.63;;;;;;;14.09;82.19;98632.59;4943493;28;20382;-68
2021/05/08 10:00:40;;;;;;;3.17;0.70;;;;;;;13.58;84.60;98631.78;4929787;28;20088;-68
2021/05/08 10:03:15;;;;;;;2.75;0.98;;;;;;;13.72;84.77;98643.00;4939432;28;20030;-69
2021/05/08 10:05:43;;;;;;;1.45;0.70;;;;;;;13.88;85.20;98637.53;4953153;28;20372;-68
2021/05/08 10:08:10;;;;;;;2.03;0.80;;;;;;;13.26;85.64;98639.19;4932582;28;20023;-68
2021/05/08 10:10:36;;;;;;;1.80;0.68;;;;;;;13.10;85.93;98645.41;4930153;28;20040;-68
2021/05/08 10:13:12;;;;;;;1.75;0.80;;;;;;;13.66;84.53;98648.66;4931084;28;20098;-68
2021/05/08 10:15:40;;;;;;;0.60;0.50;;;;;;;13.56;84.16;98658.09;4948560;28;20027;-68
2021/05/08 10:18:08;;;;;;;0.90;0.70;;;;;;;13.96;83.11;98653.59;4933253;28;20030;-68
2021/05/08 10:20:34;;;;;;;0.88;0.57;;;;;;;14.61;80.18;98652.56;4946435;28;20159;-68
2021/05/08 10:23:05;;;;;;;1.40;0.63;;;;;;;14.90;77.08;98660.09;4929373;28;20019;-68
2021/05/08 10:25:31;;;;;;;0.98;0.50;;;;;;;16.16;77.55;98660.19;4932792;28;20117;-69
2021/05/08 10:27:57;;;;;;;1.17;0.60;;;;;;;17.07;73.52;98651.19;4937808;28;20035;-69
2021/05/08 10:30:37;;;;;;;0.70;0.70;;;;;;;17.07;72.10;98656.47;4940344;28;20031;-69
2021/05/08 10:33:10;;;;;;;2.05;0.80;;;;;;;16.09;74.48;98664.28;4933050;28;20039;-69
2021/05/08 10:35:46;;;;;;;0.98;0.80;;;;;;;14.79;78.65;98677.47;4937679;28;20042;-68
2021/05/08 10:38:23;;;;;;;1.23;0.98;;;;;;;16.40;73.57;98680.31;4948999;28;20046;-69
2021/05/08 10:40:49;;;;;;;2.10;0.63;;;;;;;18.06;67.44;98665.78;4935164;28;20031;-68
2021/05/08 10:43:46;;;;;;;1.35;0.70;;;;;;;17.25;65.40;98670.78;4945865;28;20273;-69
2021/05/08 10:46:17;;;;;;;2.70;0.65;;;;;;;18.50;65.68;98664.56;4934315;28;20031;-69
2021/05/08 10:49:12;;;;;;;0.88;0.50;;;;;;;18.47;63.20;98674.56;4920553;29;20291;-68
2021/05/08 10:51:56;;;;;;;0.75;0.40;;;;;;;17.74;65.05;98669.38;4929831;28;20047;-69
2021/05/08 10:54:39;;;;;;;1.48;0.60;;;;;;;17.33;65.79;98668.34;4935091;28;20031;-69
2021/05/08 10:57:26;;;;;;;1.00;0.50;;;;;;;17.82;66.37;98661.63;4929719;28;20038;-69
2021/05/08 11:00:07;;;;;;;2.78;0.70;;;;;;;18.19;63.05;98676.94;4942116;28;20034;-69
2021/05/08 11:02:43;;;;;;;0.98;0.47;;;;;;;18.29;62.13;98688.38;4937626;28;20027;-69
2021/05/08 11:05:28;;;;;;;0.63;0.40;;;;;;;16.43;63.95;98703.78;4929542;28;20071;-69
2021/05/08 11:07:53;;;;;;;1.35;0.45;;;;;;;16.18;64.28;98705.69;4948367;28;20066;-68
2021/05/08 11:10:34;;;;;;;1.25;0.30;;;;;;;16.86;64.02;98695.97;4940334;28;20553;-67
2021/05/08 11:13:09;;;;;;;1.77;0.52;;;;;;;18.15;61.09;98694.03;4946426;28;20047;-69
2021/05/08 11:15:52;;;;;;;0.93;0.50;;;;;;;17.56;61.82;98697.25;4949412;28;20061;-68
2021/05/08 11:18:48;;;;;;;2.47;0.70;;;;;;;17.17;63.12;98709.28;4942223;28;20039;-69
2021/05/08 11:21:14;;;;;;;1.05;0.47;;;;;;;17.47;64.35;98703.31;4927029;28;20563;-69
2021/05/08 11:23:50;;;;;;;1.42;0.52;;;;;;;16.85;63.70;98705.66;4927351;28;20063;-69
2021/05/08 11:26:22;;;;;;;1.20;0.70;;;;;;;16.80;65.55;98694.66;4948224;28;20054;-68
2021/05/08 11:28:54;;;;;;;2.33;0.60;;;;;;;19.71;56.95;98693.38;4948261;28;20106;-68
2021/05/08 11:31:33;;;;;;;1.38;0.60;;;;;;;18.81;57.27;98699.72;4934030;28;20114;-68
2021/05/08 11:34:36;;;;;;;2.13;0.60;;;;;;;18.47;58.20;98698.34;4940363;28;20031;-69
2021/05/08 11:37:13;;;;;;;1.08;0.52;;;;;;;17.50;61.05;98700.41;4946651;28;20042;-69
2021/05/08 11:39:41;;;;;;;2.55;0.70;;;;;;;17.16;61.70;98705.00;4942852;28;20075;-68
2021/05/08 11:42:10;;;;;;;2.05;0.55;;;;;;;17.03;60.19;98707.78;4930296;28;20118;-68